sensor_id;sensor_type;location;lat;lon;timestamp;pressure;altitude;pressure_sealevel;temperature;humidity
65054;BME280;51639;47.828;35.038;2022-09-12T00:02:14;99484.88;;;15.96;71.83
65054;BME280;51639;47.828;35.038;2022-09-12T00:17:16;99483.66;;;15.97;72.51
65054;BME280;51639;47.828;35.038;2022-09-12T00:32:18;99475.97;;;15.87;73.52
65054;BME280;51639;47.828;35.038;2022-09-12T00:47:28;99455.22;;;15.80;74.96
65054;BME280;51639;47.828;35.038;2022-09-12T01:02:32;99447.59;;;15.99;73.80
65054;BME280;51639;47.828;35.038;2022-09-12T01:48:57;99434.69;;;15.61;79.53
65054;BME280;51639;47.828;35.038;2022-09-12T02:04:06;99435.25;;;15.65;78.79
65054;BME280;51639;47.828;35.038;2022-09-12T02:19:16;99425.59;;;15.55;81.09
65054;BME280;51639;47.828;35.038;2022-09-12T02:49:26;99428.19;;;15.34;84.11
65054;BME280;51639;47.828;35.038;2022-09-12T03:04:52;99434.69;;;15.13;90.55
65054;BME280;51639;47.828;35.038;2022-09-12T03:35:35;99416.22;;;15.08;86.34
65054;BME280;51639;47.828;35.038;2022-09-12T03:50:37;99421.69;;;15.08;86.12
65054;BME280;51639;47.828;35.038;2022-09-12T04:05:39;99431.91;;;15.22;83.69
65054;BME280;51639;47.828;35.038;2022-09-12T04:20:40;99434.22;;;15.39;82.32
65054;BME280;51639;47.828;35.038;2022-09-12T04:35:43;99457.59;;;15.40;82.46
65054;BME280;51639;47.828;35.038;2022-09-12T04:50:45;99450.88;;;15.02;82.58
65054;BME280;51639;47.828;35.038;2022-09-12T05:05:47;99431.09;;;15.31;82.76
65054;BME280;51639;47.828;35.038;2022-09-12T05:20:54;99448.78;;;15.45;82.18
65054;BME280;51639;47.828;35.038;2022-09-12T05:35:57;99455.25;;;14.76;98.38
65054;BME280;51639;47.828;35.038;2022-09-12T05:51:00;99442.06;;;14.14;100.00
65054;BME280;51639;47.828;35.038;2022-09-12T06:06:04;99462.25;;;13.98;100.00
65054;BME280;51639;47.828;35.038;2022-09-12T06:21:10;99441.66;;;14.57;100.00
65054;BME280;51639;47.828;35.038;2022-09-12T06:36:18;99460.72;;;15.09;100.00
65054;BME280;51639;47.828;35.038;2022-09-12T06:51:22;99476.25;;;15.26;100.00
65054;BME280;51639;47.828;35.038;2022-09-12T07:06:26;99460.00;;;15.47;100.00
65054;BME280;51639;47.828;35.038;2022-09-12T07:21:33;99458.72;;;15.81;100.00
65054;BME280;51639;47.828;35.038;2022-09-12T07:36:43;99467.03;;;16.16;100.00
65054;BME280;51639;47.828;35.038;2022-09-12T07:51:59;99451.00;;;16.67;100.00
65054;BME280;51639;47.828;35.038;2022-09-12T08:07:01;99421.56;;;16.83;100.00
65054;BME280;51639;47.828;35.038;2022-09-12T08:22:03;99430.50;;;16.98;100.00
65054;BME280;51639;47.828;35.038;2022-09-12T08:37:06;99421.31;;;17.62;100.00
65054;BME280;51639;47.828;35.038;2022-09-12T08:52:14;99388.88;;;17.86;100.00
65054;BME280;51639;47.828;35.038;2022-09-12T09:07:41;99392.47;;;18.98;100.00
65054;BME280;51639;47.828;35.038;2022-09-12T10:08:35;99346.25;;;23.18;81.50
65054;BME280;51639;47.828;35.038;2022-09-12T10:23:38;99372.59;;;23.43;91.59
65054;BME280;51639;47.828;35.038;2022-09-12T10:38:54;99399.38;;;22.43;88.99
65054;BME280;51639;47.828;35.038;2022-09-12T10:54:00;99407.75;;;21.56;93.60
65054;BME280;51639;47.828;35.038;2022-09-12T11:09:18;99398.97;;;21.57;82.25
65054;BME280;51639;47.828;35.038;2022-09-12T11:39:44;99348.75;;;22.54;73.87
65054;BME280;51639;47.828;35.038;2022-09-12T12:10:38;99340.00;;;21.55;84.00
65054;BME280;51639;47.828;35.038;2022-09-12T12:25:53;99320.59;;;21.66;89.58
65054;BME280;51639;47.828;35.038;2022-09-12T13:11:40;99292.13;;;21.47;81.80
65054;BME280;51639;47.828;35.038;2022-09-12T13:26:43;99290.69;;;21.34;90.50
65054;BME280;51639;47.828;35.038;2022-09-12T13:57:27;99300.44;;;20.89;87.20
65054;BME280;51639;47.828;35.038;2022-09-12T14:12:34;99315.31;;;20.63;93.48
65054;BME280;51639;47.828;35.038;2022-09-12T14:27:40;99285.28;;;20.43;97.01
65054;BME280;51639;47.828;35.038;2022-09-12T14:42:50;99288.06;;;20.21;98.69
65054;BME280;51639;47.828;35.038;2022-09-12T14:58:11;99282.59;;;19.98;93.25
65054;BME280;51639;47.828;35.038;2022-09-12T15:13:23;99273.56;;;19.87;100.00
65054;BME280;51639;47.828;35.038;2022-09-12T15:28:26;99258.06;;;19.67;100.00
65054;BME280;51639;47.828;35.038;2022-09-12T15:43:29;99247.53;;;19.49;100.00
65054;BME280;51639;47.828;35.038;2022-09-12T15:58:30;99264.75;;;19.10;100.00
65054;BME280;51639;47.828;35.038;2022-09-12T16:13:32;99266.41;;;18.85;100.00
65054;BME280;51639;47.828;35.038;2022-09-12T16:28:34;99255.34;;;18.68;100.00
65054;BME280;51639;47.828;35.038;2022-09-12T16:43:37;99282.75;;;18.57;100.00
65054;BME280;51639;47.828;35.038;2022-09-12T16:58:40;99281.47;;;18.53;100.00
65054;BME280;51639;47.828;35.038;2022-09-12T17:13:50;99288.41;;;18.42;100.00
65054;BME280;51639;47.828;35.038;2022-09-12T17:29:10;99297.19;;;18.41;100.00
65054;BME280;51639;47.828;35.038;2022-09-12T17:44:14;99306.09;;;18.30;100.00
65054;BME280;51639;47.828;35.038;2022-09-12T17:59:18;99270.59;;;18.27;100.00
65054;BME280;51639;47.828;35.038;2022-09-12T18:14:21;99276.31;;;18.18;100.00
65054;BME280;51639;47.828;35.038;2022-09-12T18:29:24;99284.47;;;17.75;100.00
65054;BME280;51639;47.828;35.038;2022-09-12T18:44:28;99287.19;;;16.22;100.00
65054;BME280;51639;47.828;35.038;2022-09-12T18:59:30;99262.09;;;15.59;100.00
65054;BME280;51639;47.828;35.038;2022-09-12T19:14:32;99246.09;;;15.28;100.00
65054;BME280;51639;47.828;35.038;2022-09-12T19:29:34;99221.56;;;15.19;100.00
65054;BME280;51639;47.828;35.038;2022-09-12T19:44:36;99223.94;;;15.11;100.00
65054;BME280;51639;47.828;35.038;2022-09-12T19:59:38;99244.56;;;15.12;100.00
65054;BME280;51639;47.828;35.038;2022-09-12T20:14:40;99231.28;;;15.05;100.00
65054;BME280;51639;47.828;35.038;2022-09-12T20:29:42;99254.53;;;14.86;100.00
65054;BME280;51639;47.828;35.038;2022-09-12T20:44:44;99234.31;;;14.68;100.00
65054;BME280;51639;47.828;35.038;2022-09-12T20:59:46;99225.91;;;14.57;100.00
65054;BME280;51639;47.828;35.038;2022-09-12T21:14:48;99211.31;;;14.60;100.00
65054;BME280;51639;47.828;35.038;2022-09-12T21:29:50;99200.44;;;14.51;100.00
65054;BME280;51639;47.828;35.038;2022-09-12T21:44:54;99185.00;;;14.48;100.00
65054;BME280;51639;47.828;35.038;2022-09-12T21:59:55;99175.88;;;14.51;100.00
65054;BME280;51639;47.828;35.038;2022-09-12T22:14:58;99180.28;;;14.49;100.00
65054;BME280;51639;47.828;35.038;2022-09-12T22:30:00;99193.53;;;14.41;100.00
65054;BME280;51639;47.828;35.038;2022-09-12T22:45:03;99198.06;;;14.44;100.00
65054;BME280;51639;47.828;35.038;2022-09-12T23:00:06;99198.25;;;14.41;100.00
65054;BME280;51639;47.828;35.038;2022-09-12T23:15:11;99184.06;;;14.51;100.00
65054;BME280;51639;47.828;35.038;2022-09-12T23:30:13;99174.41;;;14.41;100.00
65054;BME280;51639;47.828;35.038;2022-09-12T23:45:15;99171.16;;;14.28;100.00
